Aeroporto :
LOGIN :

Iscrizione | Disclaimer

   EN    FR    IT 

 










Sommario :    VFR   VFR Marginale   IFR   IFR Intensivo   IFR Molto Intensivo
Visibilità : 
Base nubi : 
>= 8 km
>= 3000ft
5 / 8 km
1000 / 3000 ft
1500m / 5 km
500 / 1000 ft
800 / 1500m
200 / 500 ft
< 800m
< 200 ft
Simboli :   Temporali  Nebbia  Neve Forte  Precipitazioni Forti  Vento > 20 kt
SIGMETs :   Varie  Temporali  Ghiacco  Turbolenza  Onda orograficha  Ceneri Vulcaniche






- Altitudine del aeroporto : 587 ft
- Codice IATA : XCR


LFOK - Chalons Vatry

ULTIMO METAR :
  • 131930Z AUTO 26007KT CAVOK 19/15 Q1013 TEMPO 4000 SHRA BKN050CB BECMG 18010KT

METARs OBSOLETI :
  • 131900Z AUTO 24007KT 190V280 CAVOK 19/15 Q1012 TEMPO 4000 SHRA BKN050CB
  • 131830Z AUTO 19005KT CAVOK 18/15 Q1012 TEMPO 4000 SHRA BKN050CB
  • 131800Z AUTO 21006KT CAVOK 18/15 Q1011 TEMPO 4000 SHRA BKN050CB
  • 131730Z AUTO 21006KT CAVOK 19/16 Q1011 TEMPO VRB15G25KT 4000 SHRA BKN050CB
  • 131700Z AUTO 21007KT CAVOK 20/15 Q1011 TEMPO VRB15G25KT 4000 SHRA BKN050CB

TAF TAF LFOK
Valido dal 13 a 18 ore il 14 a 18 ore UTC


131700Z 1318/1418 18010KT CAVOK
TEMPO 1318/1322 4000 SHRA BKN050CB
BECMG 1322/1324 VRB02KT
PROB40
TEMPO 1400/1403 0500 FG
BECMG 1403/1406 13010KT



MetMap, La meteo Aeronautica in un colpo d'occhio ! - Copyright ORBIFLY Dicembre 2007 - Disclaimer

ORBIFLY MET'MAP TEAM :

Programmazione e sviluppo : Alexandra Zaïnal
Concezione e sviluppo : Baudouin d'Aumeries
Co-Programmazione e sviluppo : Marc-Olivier Méhu
Supporto tecnico e logistico : Manuel Goepfert
Aiuto per la traduzione : Arnaldo La Scala

Contatto : metmap@orbifly.com




FONTI E CREDITI :

   NOAA